Deatsville, Kentucky
Current Conditions -  °F | °C
As of 8:56 PM on Monday 24 Nov 2014 (Local Time) from KSDF Reporting Station
Scattered Clouds Scattered Clouds  
Wind Chill:   Ceiling: Unl
Heat Index:   Visibility: 10mi
Dew Point:   Wind: 14mph
Humidity: 59%   Direction: 240°WSW
Pressure: 29.92"   Gusts: NA
Location:  37.9212°N, 85.4864°W
Report Text: KSDF 250156Z 24012KT 10SM FEW050 SCT065 08/01 A2992 RMK AO2 SLP131 T00830006
Loading
Personal Weather Stations






























Interactive Weather Map New forecast layout! Learn more

10-Day Weather Forecast

Advertisements
Track Severe Weather on mobile